Terminal Aerodrome Forecast
Issued by NWS Melbourne, FL

Home | Current Version | Previous Version | Text Only | Print | Product List | Glossary On
Versions: 1 2 3 4 5 6 7 8 9 10 11 12 13
000
FTUS42 KMLB 301140
TAFDAB
TAF
KDAB 301140Z 3012/0112 21004KT P6SM FEW024 OVC250
     FM301400 26009KT P6SM VCSH SCT025 SCT150 BKN250
     FM010300 21005KT P6SM VCSH SCT020 BKN250=

USA.gov is the U.S. government's official web portal to all federal, state and local government web resources and services.